Terminal Aerodrome Forecast
Issued by NWS

Home | Current Version | Previous Version | Text Only | Print | Product List | Glossary On
Versions: 1 2 3 4 5 6 7 8 9 10 11 12 13 14 15 16 17 18 19 20 21
713
FTUS41 KCAR 271120
TAFFVE
TAF
KFVE 271120Z 2712/2812 28005KT P6SM SCT250
     FM272100 24006KT P6SM VCTS OVC050CB
     FM280000 23004KT 6SM BR BKN250
     FM280800 VRB03KT 4SM BR BKN035
     FM281100 VRB03KT 2SM BR SCT003=

USA.gov is the U.S. government's official web portal to all federal, state and local government web resources and services.